createdAt,value
2022-09-12T00:01:37.207Z,79.39
2022-09-12T00:04:20.282Z,79.36
2022-09-12T00:07:03.248Z,79.34
2022-09-12T00:09:46.193Z,79.70
2022-09-12T00:12:30.430Z,79.88
2022-09-12T00:15:13.682Z,80.02
2022-09-12T00:17:56.648Z,79.78
2022-09-12T00:20:42.823Z,80.05
2022-09-12T00:23:25.795Z,80.07
2022-09-12T00:26:09.544Z,79.98
2022-09-12T00:28:54.167Z,79.92
2022-09-12T00:31:37.177Z,79.91
2022-09-12T00:34:20.111Z,80.14
2022-09-12T00:37:03.096Z,80.19
2022-09-12T00:39:46.102Z,80.17
2022-09-12T00:42:29.183Z,80.40
2022-09-12T00:45:24.306Z,80.67
2022-09-12T00:48:07.280Z,80.64
2022-09-12T00:50:51.337Z,80.47
2022-09-12T00:53:34.416Z,80.74
2022-09-12T00:56:20.457Z,80.86
2022-09-12T00:59:08.380Z,81.00
2022-09-12T01:01:53.688Z,80.69
2022-09-12T01:04:39.367Z,80.71
2022-09-12T01:07:22.839Z,80.56
2022-09-12T01:10:06.646Z,80.58
2022-09-12T01:12:49.907Z,80.64
2022-09-12T01:15:33.272Z,80.61
2022-09-12T01:18:25.815Z,80.69
2022-09-12T01:21:16.776Z,80.59
2022-09-12T01:24:37.991Z,80.12
2022-09-12T01:27:48.504Z,80.34
2022-09-12T01:30:49.202Z,80.56
2022-09-12T01:33:59.258Z,80.59
2022-09-12T01:36:51.412Z,80.38
2022-09-12T01:39:44.235Z,80.31
2022-09-12T01:42:35.194Z,80.45
2022-09-12T01:45:24.522Z,80.46
2022-09-12T01:48:14.104Z,80.50
2022-09-12T01:51:07.509Z,80.51
2022-09-12T01:53:54.962Z,80.52
2022-09-12T01:56:41.359Z,80.52
2022-09-12T01:59:30.468Z,80.79
2022-09-12T02:02:16.820Z,80.82
2022-09-12T02:05:06.943Z,80.78
2022-09-12T02:07:54.871Z,80.97
2022-09-12T02:10:45.117Z,80.75
2022-09-12T02:13:33.340Z,80.71
2022-09-12T02:16:20.200Z,80.51
2022-09-12T02:19:09.733Z,80.67
2022-09-12T02:21:56.759Z,80.57
2022-09-12T02:24:43.310Z,80.56
2022-09-12T02:27:33.611Z,80.55
2022-09-12T02:30:17.618Z,80.38
2022-09-12T02:33:06.046Z,80.31
2022-09-12T02:35:52.901Z,80.30
2022-09-12T02:38:45.286Z,80.35
2022-09-12T02:41:28.704Z,80.46
2022-09-12T02:44:11.785Z,80.39
2022-09-12T02:46:58.500Z,80.41
2022-09-12T02:49:41.440Z,80.30
2022-09-12T02:52:24.587Z,80.74
2022-09-12T02:55:11.618Z,80.84
2022-09-12T02:57:54.606Z,80.82
2022-09-12T03:00:46.580Z,80.61
2022-09-12T03:03:45.140Z,80.60
2022-09-12T03:06:36.520Z,80.53
2022-09-12T03:09:24.166Z,80.51
2022-09-12T03:12:26.504Z,80.41
2022-09-12T03:15:21.590Z,80.49
2022-09-12T03:18:07.404Z,80.82
2022-09-12T03:21:00.899Z,80.71
2022-09-12T03:23:52.664Z,80.84
2022-09-12T03:26:41.379Z,81.02
2022-09-12T03:29:27.413Z,81.21
2022-09-12T03:32:10.424Z,81.18
2022-09-12T03:34:53.416Z,81.56
2022-09-12T03:37:36.511Z,81.44
2022-09-12T03:40:20.041Z,81.42
2022-09-12T03:43:03.934Z,81.57
2022-09-12T03:45:51.372Z,81.64
2022-09-12T03:48:34.519Z,81.63
2022-09-12T03:51:17.832Z,81.65
2022-09-12T03:54:00.746Z,81.51
2022-09-12T03:56:43.702Z,81.29
2022-09-12T03:59:26.627Z,81.28
2022-09-12T04:02:13.106Z,81.50
2022-09-12T04:04:56.069Z,81.69
2022-09-12T04:07:38.994Z,81.93
2022-09-12T04:10:22.676Z,81.92
2022-09-12T04:13:05.783Z,82.05
2022-09-12T04:15:57.392Z,82.06
2022-09-12T04:18:41.972Z,81.91
2022-09-12T04:21:25.713Z,82.03
2022-09-12T04:24:08.687Z,81.98
2022-09-12T04:26:51.671Z,81.91
2022-09-12T04:29:35.680Z,81.91
2022-09-12T04:32:18.934Z,81.97
2022-09-12T04:35:03.284Z,82.00
2022-09-12T04:37:46.369Z,81.98
2022-09-12T04:40:31.489Z,81.67
2022-09-12T04:43:14.737Z,81.51
2022-09-12T04:45:58.464Z,81.63
2022-09-12T04:48:41.776Z,81.78
2022-09-12T04:51:28.146Z,81.81
2022-09-12T04:54:15.092Z,81.78
2022-09-12T04:56:58.140Z,81.59
2022-09-12T04:59:41.217Z,81.87
2022-09-12T05:02:24.189Z,81.59
2022-09-12T05:05:08.060Z,81.35
2022-09-12T05:07:52.381Z,81.35
2022-09-12T05:10:35.522Z,81.21
2022-09-12T05:13:18.498Z,81.26
2022-09-12T05:16:02.856Z,81.33
2022-09-12T05:18:47.324Z,81.49
2022-09-12T05:21:30.351Z,81.55
2022-09-12T05:24:14.720Z,81.42
2022-09-12T05:26:57.643Z,81.41
2022-09-12T05:29:40.596Z,81.43
2022-09-12T05:32:23.513Z,81.41
2022-09-12T05:35:06.808Z,81.31
2022-09-12T05:37:49.732Z,81.42
2022-09-12T05:40:35.084Z,81.43
2022-09-12T05:43:18.139Z,81.38
2022-09-12T05:46:05.394Z,81.53
2022-09-12T05:48:53.721Z,81.33
2022-09-12T05:51:40.960Z,81.46
2022-09-12T05:54:25.564Z,81.30
2022-09-12T05:57:12.763Z,81.32
2022-09-12T05:59:55.764Z,81.43
2022-09-12T06:02:38.721Z,81.29
2022-09-12T06:05:21.742Z,81.59
2022-09-12T06:08:04.711Z,81.48
2022-09-12T06:10:47.711Z,81.48
2022-09-12T06:13:34.544Z,81.35
2022-09-12T06:16:19.178Z,81.48
2022-09-12T06:19:03.823Z,81.41
2022-09-12T06:21:48.333Z,81.41
2022-09-12T06:24:31.279Z,81.53
2022-09-12T06:27:14.221Z,81.49
2022-09-12T06:29:59.503Z,81.47
2022-09-12T06:32:42.403Z,81.24
2022-09-12T06:35:25.390Z,81.33
2022-09-12T06:38:09.570Z,81.22
2022-09-12T06:40:52.453Z,81.01
2022-09-12T06:43:37.031Z,80.92
2022-09-12T06:46:21.844Z,80.81
2022-09-12T06:49:04.804Z,80.99
2022-09-12T06:51:47.782Z,80.74
2022-09-12T06:54:31.125Z,80.82
2022-09-12T06:57:14.032Z,80.70
2022-09-12T06:59:57.059Z,80.73
2022-09-12T07:02:41.790Z,80.61
2022-09-12T07:05:24.748Z,80.52
2022-09-12T07:08:07.711Z,80.41
2022-09-12T07:10:50.892Z,80.41
2022-09-12T07:13:33.906Z,80.30
2022-09-12T07:16:20.007Z,80.41
2022-09-12T07:19:06.299Z,80.37
2022-09-12T07:21:49.325Z,80.59
2022-09-12T07:24:32.290Z,80.53
2022-09-12T07:27:15.361Z,80.28
2022-09-12T07:29:58.494Z,80.25
2022-09-12T07:32:41.421Z,79.80
2022-09-12T07:35:25.881Z,79.63
2022-09-12T07:38:09.398Z,79.70
2022-09-12T07:40:52.312Z,79.86
2022-09-12T07:43:35.306Z,79.65
2022-09-12T07:46:18.489Z,79.35
2022-09-12T07:49:02.809Z,79.65
2022-09-12T07:51:47.122Z,79.23
2022-09-12T07:54:30.089Z,79.25
2022-09-12T07:57:13.031Z,79.24
2022-09-12T07:59:56.044Z,79.13
2022-09-12T08:02:39.025Z,79.04
2022-09-12T08:05:22.095Z,79.45
2022-09-12T08:08:06.325Z,79.43
2022-09-12T08:10:49.312Z,79.71
2022-09-12T08:13:32.710Z,79.53
2022-09-12T08:16:17.898Z,79.49
2022-09-12T08:19:02.276Z,79.89
2022-09-12T08:21:45.175Z,79.55
2022-09-12T08:24:29.575Z,79.23
2022-09-12T08:27:12.479Z,78.65
2022-09-12T08:29:55.597Z,78.75
2022-09-12T08:32:38.659Z,78.64
2022-09-12T08:35:21.634Z,78.85
2022-09-12T08:38:04.605Z,78.53
2022-09-12T08:40:55.250Z,78.59
2022-09-12T08:43:56.758Z,77.99
2022-09-12T08:46:47.093Z,77.95
2022-09-12T08:49:34.513Z,77.02
2022-09-12T08:52:23.029Z,76.88
2022-09-12T08:55:08.087Z,76.15
2022-09-12T08:57:53.037Z,76.48
2022-09-12T09:00:44.571Z,76.08
2022-09-12T09:03:55.300Z,75.96
2022-09-12T09:06:56.784Z,75.48
2022-09-12T09:09:49.291Z,75.20
2022-09-12T09:12:44.030Z,75.27
2022-09-12T09:15:41.268Z,75.32
2022-09-12T09:18:28.865Z,75.42
2022-09-12T09:21:22.859Z,75.87
2022-09-12T09:24:10.731Z,76.00
2022-09-12T09:26:59.004Z,76.09
2022-09-12T09:29:45.652Z,75.30
2022-09-12T09:32:36.093Z,74.78
2022-09-12T09:35:25.739Z,73.80
2022-09-12T09:38:19.936Z,73.75
2022-09-12T09:41:16.879Z,73.78
2022-09-12T09:44:00.671Z,73.43
2022-09-12T09:46:43.723Z,72.98
2022-09-12T09:49:31.057Z,73.54
2022-09-12T09:52:17.452Z,73.29
2022-09-12T09:55:02.004Z,72.76
2022-09-12T09:57:47.631Z,73.14
2022-09-12T10:00:33.238Z,73.57
2022-09-12T10:03:33.924Z,73.50
2022-09-12T10:06:34.525Z,72.30
2022-09-12T10:09:24.167Z,71.64
2022-09-12T10:12:23.055Z,71.80
2022-09-12T10:15:19.301Z,71.16
2022-09-12T10:18:03.104Z,70.54
2022-09-12T10:20:46.728Z,68.59
2022-09-12T10:23:36.133Z,68.49
2022-09-12T10:26:21.743Z,68.58
2022-09-12T10:29:13.856Z,66.60
2022-09-12T10:31:59.987Z,66.26
2022-09-12T10:34:45.087Z,66.71
2022-09-12T10:37:33.140Z,67.42
2022-09-12T10:40:25.338Z,66.71
2022-09-12T10:43:18.907Z,66.94
2022-09-12T10:46:25.076Z,65.21
2022-09-12T10:49:22.171Z,65.06
2022-09-12T10:52:19.123Z,64.76
2022-09-12T10:55:02.050Z,64.30
2022-09-12T10:58:02.126Z,63.65
2022-09-12T11:00:51.592Z,63.57
2022-09-12T11:06:36.320Z,62.43
2022-09-12T11:09:25.961Z,62.11
2022-09-12T11:12:16.424Z,60.76
2022-09-12T11:15:17.128Z,58.91
2022-09-12T11:18:10.140Z,59.06
2022-09-12T11:21:17.056Z,57.60
2022-09-12T11:24:16.355Z,57.33
2022-09-12T11:27:10.831Z,56.92
2022-09-12T11:29:58.745Z,57.47
2022-09-12T11:33:09.778Z,57.45
2022-09-12T11:35:57.343Z,57.41
2022-09-12T11:39:07.769Z,56.39
2022-09-12T11:41:57.027Z,56.49
2022-09-12T11:44:44.635Z,56.59
2022-09-12T11:47:30.809Z,56.20
2022-09-12T11:50:21.851Z,56.02
2022-09-12T11:53:16.347Z,55.78
2022-09-12T11:56:06.714Z,55.65
2022-09-12T11:58:56.698Z,55.37
2022-09-12T12:01:48.595Z,54.07
2022-09-12T12:04:40.643Z,55.08
2022-09-12T12:07:24.959Z,54.16
2022-09-12T12:10:09.328Z,53.67
2022-09-12T12:12:53.971Z,53.06
2022-09-12T12:15:37.783Z,51.18
2022-09-12T12:18:24.773Z,52.42
2022-09-12T12:21:32.593Z,52.37
2022-09-12T12:24:21.331Z,54.01
2022-09-12T12:27:05.952Z,52.93
2022-09-12T12:29:48.968Z,52.95
2022-09-12T12:32:31.924Z,52.64
2022-09-12T12:35:39.583Z,52.27
2022-09-12T12:38:30.894Z,52.92
2022-09-12T12:41:46.547Z,52.17
2022-09-12T12:44:47.346Z,53.25
2022-09-12T12:47:33.855Z,54.34
2022-09-12T12:50:26.164Z,54.47
2022-09-12T12:53:20.160Z,55.41
2022-09-12T12:56:03.918Z,56.15
2022-09-12T12:58:48.253Z,55.99
2022-09-12T13:01:32.648Z,56.55
2022-09-12T13:04:18.930Z,56.42
2022-09-12T13:07:08.406Z,56.38
2022-09-12T13:09:54.115Z,56.85
2022-09-12T13:12:45.359Z,56.48
2022-09-12T13:15:51.418Z,57.00
2022-09-12T13:18:44.254Z,56.92
2022-09-12T13:21:27.170Z,57.12
2022-09-12T13:24:15.917Z,57.21
2022-09-12T13:26:58.936Z,56.60
2022-09-12T13:29:42.362Z,56.35
2022-09-12T13:32:27.220Z,56.45
2022-09-12T13:35:22.583Z,56.72
2022-09-12T13:38:15.778Z,55.89
2022-09-12T13:41:18.472Z,55.05
2022-09-12T13:44:02.792Z,55.50
2022-09-12T13:46:46.311Z,53.99
2022-09-12T13:49:35.378Z,54.50
2022-09-12T13:52:22.322Z,54.05
2022-09-12T13:55:09.339Z,53.18
2022-09-12T13:57:58.139Z,54.78
2022-09-12T14:00:41.167Z,55.80
2022-09-12T14:03:45.699Z,56.13
2022-09-12T14:06:36.036Z,55.91
2022-09-12T14:09:25.425Z,54.50
2022-09-12T14:12:20.652Z,53.88
2022-09-12T14:15:04.157Z,53.54
2022-09-12T14:17:52.169Z,52.44
2022-09-12T14:20:39.443Z,52.26
2022-09-12T14:23:28.417Z,52.24
2022-09-12T14:26:13.654Z,52.74
2022-09-12T14:28:56.879Z,52.11
2022-09-12T14:31:41.313Z,52.15
2022-09-12T14:34:24.325Z,53.12
2022-09-12T14:37:08.531Z,53.94
2022-09-12T14:39:52.984Z,53.92
2022-09-12T14:42:35.889Z,54.52
2022-09-12T14:45:25.219Z,54.81
2022-09-12T14:48:20.222Z,55.13
2022-09-12T14:51:03.709Z,55.08
2022-09-12T14:53:49.885Z,54.47
2022-09-12T14:56:43.574Z,53.59
2022-09-12T14:59:32.470Z,53.82
2022-09-12T15:02:27.046Z,53.42
2022-09-12T15:05:28.363Z,53.65
2022-09-12T15:08:16.158Z,53.95
2022-09-12T15:10:59.846Z,54.12
2022-09-12T15:13:44.127Z,54.27
2022-09-12T15:16:27.020Z,54.53
2022-09-12T15:19:10.039Z,54.31
2022-09-12T15:21:53.643Z,54.60
2022-09-12T15:24:39.857Z,54.10
2022-09-12T15:27:24.005Z,54.77
2022-09-12T15:30:10.272Z,54.41
2022-09-12T15:32:53.379Z,54.62
2022-09-12T15:35:36.680Z,54.92
2022-09-12T15:38:23.129Z,55.32
2022-09-12T15:41:13.027Z,55.43
2022-09-12T15:43:56.822Z,55.82
2022-09-12T15:46:41.316Z,55.69
2022-09-12T15:49:24.371Z,56.36
2022-09-12T15:52:07.553Z,56.43
2022-09-12T15:54:50.464Z,57.07
2022-09-12T15:57:33.487Z,57.63
2022-09-12T16:00:18.800Z,58.37
2022-09-12T16:03:03.452Z,58.40
2022-09-12T16:05:46.375Z,58.70
2022-09-12T16:08:31.416Z,59.09
2022-09-12T16:11:19.950Z,58.67
2022-09-12T16:14:03.788Z,59.06
2022-09-12T16:16:53.361Z,59.34
2022-09-12T16:19:38.058Z,59.67
2022-09-12T16:22:20.828Z,60.36
2022-09-12T16:25:04.198Z,59.98
2022-09-12T16:27:47.317Z,60.19
2022-09-12T16:30:30.323Z,60.12
2022-09-12T16:33:13.344Z,60.31
2022-09-12T16:36:03.857Z,59.85
2022-09-12T16:38:48.290Z,60.74
2022-09-12T16:41:31.359Z,60.66
2022-09-12T16:44:14.405Z,59.95
2022-09-12T16:46:57.783Z,59.92
2022-09-12T16:49:40.705Z,59.86
2022-09-12T16:52:25.076Z,60.40
2022-09-12T16:55:08.912Z,60.67
2022-09-12T16:57:51.899Z,60.40
2022-09-12T17:00:34.855Z,61.17
2022-09-12T17:03:17.875Z,61.07
2022-09-12T17:06:01.464Z,61.19
2022-09-12T17:08:48.841Z,61.37
2022-09-12T17:11:34.133Z,62.01
2022-09-12T17:14:17.387Z,62.65
2022-09-12T17:17:00.391Z,62.80
2022-09-12T17:19:43.524Z,63.42
2022-09-12T17:22:26.467Z,63.70
2022-09-12T17:25:10.904Z,63.99
2022-09-12T17:27:53.818Z,63.95
2022-09-12T17:30:37.118Z,64.27
2022-09-12T17:33:20.369Z,64.19
2022-09-12T17:36:04.620Z,64.45
2022-09-12T17:38:48.162Z,64.46
2022-09-12T17:41:33.307Z,64.71
2022-09-12T17:44:16.964Z,64.68
2022-09-12T17:46:59.878Z,64.77
2022-09-12T17:49:42.780Z,64.96
2022-09-12T17:52:25.755Z,64.93
2022-09-12T17:55:09.128Z,65.52
2022-09-12T17:57:53.603Z,65.46
2022-09-12T18:00:50.536Z,66.01
2022-09-12T18:03:35.199Z,65.72
2022-09-12T18:06:18.328Z,65.99
2022-09-12T18:09:02.270Z,66.34
2022-09-12T18:11:45.434Z,66.45
2022-09-12T18:14:29.839Z,66.64
2022-09-12T18:17:12.827Z,66.82
2022-09-12T18:19:55.957Z,67.03
2022-09-12T18:22:38.953Z,67.42
2022-09-12T18:25:21.998Z,67.48
2022-09-12T18:28:09.258Z,68.41
2022-09-12T18:30:54.255Z,69.09
2022-09-12T18:33:37.981Z,68.63
2022-09-12T18:36:21.048Z,68.56
2022-09-12T18:39:04.016Z,68.67
2022-09-12T18:41:46.930Z,69.03
2022-09-12T18:44:30.052Z,69.28
2022-09-12T18:47:14.320Z,69.68
2022-09-12T18:49:57.240Z,70.22
2022-09-12T18:52:40.162Z,70.02
2022-09-12T18:55:23.804Z,70.52
2022-09-12T18:58:06.939Z,70.31
2022-09-12T19:00:49.895Z,70.47
2022-09-12T19:03:34.170Z,70.47
2022-09-12T19:06:18.880Z,70.21
2022-09-12T19:09:07.239Z,70.21
2022-09-12T19:11:52.581Z,70.00
2022-09-12T19:14:35.516Z,70.10
2022-09-12T19:17:19.518Z,69.95
2022-09-12T19:20:04.165Z,69.72
2022-09-12T19:22:47.204Z,69.85
2022-09-12T19:25:30.291Z,69.44
2022-09-12T19:28:13.353Z,69.38
2022-09-12T19:30:56.360Z,69.67
2022-09-12T19:33:40.072Z,69.47
2022-09-12T19:39:27.475Z,69.08
2022-09-12T19:42:10.421Z,68.80
2022-09-12T19:44:55.786Z,68.51
2022-09-12T19:47:38.708Z,68.24
2022-09-12T19:50:21.692Z,68.35
2022-09-12T19:53:06.466Z,68.14
2022-09-12T19:55:49.210Z,68.62
2022-09-12T19:58:33.632Z,68.17
2022-09-12T20:01:18.513Z,68.01
2022-09-12T20:04:01.499Z,68.20
2022-09-12T20:06:44.448Z,68.55
2022-09-12T20:09:28.800Z,68.59
2022-09-12T20:12:11.993Z,68.46
2022-09-12T20:14:54.968Z,68.61
2022-09-12T20:17:37.920Z,68.51
2022-09-12T20:20:20.971Z,68.61
2022-09-12T20:23:04.012Z,68.49
2022-09-12T20:25:48.948Z,68.28
2022-09-12T20:28:32.610Z,68.36
2022-09-12T20:31:17.093Z,68.14
2022-09-12T20:34:00.538Z,68.16
2022-09-12T20:36:43.640Z,68.47
2022-09-12T20:39:27.086Z,68.24
2022-09-12T20:42:11.391Z,68.40
2022-09-12T20:44:54.399Z,68.27
2022-09-12T20:47:37.314Z,68.15
2022-09-12T20:50:20.270Z,68.15
2022-09-12T20:53:03.224Z,68.05
2022-09-12T20:55:53.066Z,68.07
2022-09-12T20:58:40.497Z,67.94
2022-09-12T21:01:27.908Z,68.02
2022-09-12T21:04:14.785Z,67.94
2022-09-12T21:06:58.174Z,67.89
2022-09-12T21:09:41.199Z,68.13
2022-09-12T21:12:24.142Z,68.17
2022-09-12T21:15:10.254Z,68.36
2022-09-12T21:17:53.644Z,68.34
2022-09-12T21:20:36.656Z,68.21
2022-09-12T21:23:19.898Z,68.12
2022-09-12T21:26:03.956Z,68.33
2022-09-12T21:28:46.875Z,68.20
2022-09-12T21:31:31.348Z,68.14
2022-09-12T21:34:14.303Z,68.02
2022-09-12T21:36:57.275Z,68.13
2022-09-12T21:39:40.276Z,68.34
2022-09-12T21:42:23.288Z,68.26
2022-09-12T21:45:07.411Z,67.99
2022-09-12T21:47:51.788Z,68.17
2022-09-12T21:50:34.781Z,68.04
2022-09-12T21:53:17.807Z,68.20
2022-09-12T21:56:05.846Z,68.58
2022-09-12T21:58:48.789Z,68.75
2022-09-12T22:01:31.774Z,68.62
2022-09-12T22:04:16.386Z,68.84
2022-09-12T22:06:59.316Z,68.86
2022-09-12T22:09:42.259Z,69.11
2022-09-12T22:12:27.455Z,68.95
2022-09-12T22:15:36.389Z,69.45
2022-09-12T22:18:14.240Z,69.27
2022-09-12T22:21:03.727Z,69.86
2022-09-12T22:24:04.695Z,70.04
2022-09-12T22:26:47.758Z,69.80
2022-09-12T22:29:30.722Z,70.24
2022-09-12T22:32:13.665Z,69.99
2022-09-12T22:34:57.937Z,70.51
2022-09-12T22:37:42.422Z,70.75
2022-09-12T22:40:25.419Z,70.59
2022-09-12T22:43:08.895Z,70.82
2022-09-12T22:45:52.297Z,70.88
2022-09-12T22:48:35.540Z,71.04
2022-09-12T22:51:18.878Z,70.86
2022-09-12T22:54:03.391Z,70.88
2022-09-12T22:56:46.239Z,70.60
2022-09-12T22:59:29.196Z,70.45
2022-09-12T23:02:12.102Z,70.80
2022-09-12T23:04:55.095Z,70.92
2022-09-12T23:07:38.073Z,70.86
2022-09-12T23:10:22.946Z,71.01
2022-09-12T23:13:06.331Z,71.07
2022-09-12T23:15:49.809Z,71.12
2022-09-12T23:18:35.439Z,71.34
2022-09-12T23:21:20.328Z,71.48
2022-09-12T23:24:03.729Z,71.42
2022-09-12T23:26:48.152Z,71.32
2022-09-12T23:29:34.374Z,71.35
2022-09-12T23:32:17.656Z,71.51
2022-09-12T23:35:00.518Z,71.22
2022-09-12T23:37:43.622Z,71.47
2022-09-12T23:40:26.564Z,71.44
2022-09-12T23:43:10.823Z,71.69
2022-09-12T23:45:54.223Z,71.91
2022-09-12T23:48:37.370Z,71.95
2022-09-12T23:51:21.721Z,71.55
2022-09-12T23:54:04.773Z,72.17
2022-09-12T23:56:47.924Z,72.29
2022-09-12T23:59:32.288Z,72.31
